createdAt,value
2019-05-01T00:10:40.310Z,44.1
2019-05-01T00:26:01.852Z,48.6
2019-05-01T00:41:15.725Z,52.5
2019-05-01T00:56:29.533Z,53.8
2019-05-01T01:11:42.210Z,52.6
2019-05-01T01:26:55.612Z,52.7
2019-05-01T01:42:09.170Z,55.4
2019-05-01T01:57:22.742Z,56.5
2019-05-01T02:12:36.178Z,56.2
2019-05-01T02:27:43.550Z,56.3
2019-05-01T02:43:03.137Z,56.3
2019-05-01T02:58:16.659Z,56.9
2019-05-01T03:13:30.201Z,56.2
2019-05-01T03:28:43.848Z,56.2
2019-05-01T03:43:57.551Z,55.2
2019-05-01T03:59:11.131Z,54.5
2019-05-01T04:14:24.811Z,57.2
2019-05-01T04:29:38.547Z,60.5
2019-05-01T04:44:47.685Z,62.4
2019-05-01T05:00:06.397Z,63.7
2019-05-01T05:15:20.122Z,66.8
2019-05-01T05:30:34.130Z,75.3
2019-05-01T05:45:37.262Z,78.7
2019-05-01T06:01:02.384Z,81
2019-05-01T06:16:17.682Z,83.2
2019-05-01T06:31:30.998Z,83.6
2019-05-01T06:46:45.478Z,83.2
2019-05-01T07:02:00.198Z,81.6
2019-05-01T07:17:15.063Z,80
2019-05-01T07:32:29.174Z,76.5
2019-05-01T07:47:44.082Z,71.2
2019-05-01T08:02:49.642Z,66.3
2019-05-01T08:18:14.324Z,66.7
2019-05-01T08:33:29.366Z,65.4
2019-05-01T08:48:44.742Z,60.8
2019-05-01T09:04:13.516Z,54.2
2019-05-01T09:19:16.368Z,51.1
2019-05-01T09:34:32.197Z,51.8
2019-05-01T09:49:53.802Z,55
2019-05-01T10:05:07.905Z,56.2
2019-05-01T10:20:12.491Z,48.6
2019-05-01T10:35:43.534Z,45.7
2019-05-01T10:50:52.994Z,45
2019-05-01T11:06:09.990Z,37.7
2019-05-01T11:21:12.232Z,35.9
2019-05-01T11:36:43.050Z,34.8
2019-05-01T11:52:02.227Z,32.7
2019-05-01T12:07:20.230Z,29.9
2019-05-01T12:22:37.705Z,30
2019-05-01T12:37:45.155Z,23.4
2019-05-01T12:53:13.682Z,23.4
2019-05-01T13:08:30.977Z,25.2
2019-05-01T13:23:49.004Z,23.7
2019-05-01T13:39:07.337Z,22
2019-05-01T13:54:20.632Z,22.2
2019-05-01T14:09:43.138Z,24.6
2019-05-01T14:25:01.389Z,22.8
2019-05-01T14:40:19.503Z,20.8
2019-05-01T14:55:24.775Z,20.6
2019-05-01T15:10:56.751Z,21.4
2019-05-01T15:26:16.554Z,18.9
2019-05-01T15:41:34.987Z,19
2019-05-01T15:56:54.085Z,19.6
2019-05-01T16:12:02.214Z,21.1
2019-05-01T16:27:31.609Z,20.7
2019-05-01T16:42:50.268Z,21.9
2019-05-01T16:58:08.753Z,23.4
2019-05-01T17:13:27.086Z,23.9
2019-05-01T17:28:36.471Z,25
2019-05-01T17:44:03.586Z,25.6
2019-05-01T17:59:21.335Z,27.3
2019-05-01T18:14:38.742Z,29.1
2019-05-01T18:29:55.700Z,32.3
2019-05-01T18:45:09.829Z,34.8
2019-05-01T19:00:28.956Z,36.7
2019-05-01T19:15:45.325Z,38
2019-05-01T19:31:01.514Z,38.1
2019-05-01T19:46:04.335Z,38.7
2019-05-01T20:01:33.673Z,39.8
2019-05-01T20:16:51.242Z,39.8
2019-05-01T20:32:05.396Z,40.8
2019-05-01T20:47:35.633Z,41.3
2019-05-01T21:03:31.352Z,42.1
2019-05-01T21:18:49.690Z,42.6
2019-05-01T21:34:05.295Z,43.7
2019-05-01T21:49:23.082Z,45.5
2019-05-01T22:04:31.840Z,45.8
2019-05-01T22:17:51.599Z,51.3
2019-05-01T22:33:13.047Z,47.8
2019-05-01T22:48:28.393Z,48.7
2019-05-01T23:03:43.616Z,49.8
2019-05-01T23:18:51.798Z,51.3
2019-05-01T23:34:13.777Z,53.2
2019-05-01T23:49:28.833Z,54
